Aviation Digital Data Service (ADDS)

Output produced by METARs form (1456 UTC 27 November 2021)
found at http://www.aviationweather.gov/metar/data/
 
METAR text: KSNA 271453Z 00000KT 10SM CLR 11/M02 A3007 RMK AO2 SLP181 T01061022 53012
Conditions at: KSNA (COSTA MESA , CA, US) observed 1453 UTC 27 November 2021
Temperature: 10.6°C (51°F)
Dewpoint: -2.2°C (28°F) [RH = 41%]
Pressure (altimeter): 30.07 inches Hg (1018.4 mb)
[Sea-level pressure: 1018.1 mb]
Winds: calm
Visibility: 10 or more miles (16+ km)
Ceiling: at least 12,000 feet AGL
Clouds: sky clear below 12,000 feet AGL
Weather: no significant weather observed at this time

METAR text: KSNA 271353Z 00000KT 10SM CLR 11/M03 A3005 RMK AO2 SLP176 T01061028
Conditions at: KSNA (COSTA MESA , CA, US) observed 1353 UTC 27 November 2021
Temperature: 10.6°C (51°F)
Dewpoint: -2.8°C (27°F) [RH = 39%]
Pressure (altimeter): 30.05 inches Hg (1017.7 mb)
[Sea-level pressure: 1017.6 mb]
Winds: calm
Visibility: 10 or more miles (16+ km)
Ceiling: at least 12,000 feet AGL
Clouds: sky clear below 12,000 feet AGL
Weather: no significant weather observed at this time

Forecast for: KSNA (COSTA MESA , CA, US)
Text: KSNA 271120Z 2712/2812 VRB04KT P6SM SKC
Forecast period: 1200 to 2000 UTC 27 November 2021
Forecast type: FROM: standard forecast or significant change
Winds: variable direction winds at 5 MPH (4 knots; 2.1 m/s)
Visibility: 6 or more miles (10+ km)
Clouds: clear skies
Weather: no significant weather forecast for this period
Text: FM272000 23007KT P6SM FEW250
Forecast period: 2000 UTC 27 November 2021 to 0100 UTC 28 November 2021
Forecast type: FROM: standard forecast or significant change
Winds: from the SW (230 degrees) at 8 MPH (7 knots; 3.6 m/s)
Visibility: 6 or more miles (10+ km)
Ceiling: at least 12,000 feet AGL
Clouds: few clouds at 25000 feet AGL
Weather: no significant weather forecast for this period
Text: FM280100 VRB04KT P6SM SCT250
Forecast period: 0100 to 1200 UTC 28 November 2021
Forecast type: FROM: standard forecast or significant change
Winds: variable direction winds at 5 MPH (4 knots; 2.1 m/s)
Visibility: 6 or more miles (10+ km)
Ceiling: at least 12,000 feet AGL
Clouds: scattered clouds at 25000 feet AGL
Weather: no significant weather forecast for this period